KAOH/AOH METAR and TAF weather

Enter ICAO airport designator
Station Type Date Time Source
KAOH METAR 2023/01/30 11:39 UTC NOAA

KAOH 301139Z AUTO 34008KT 2 1/2SM -SN BR OVC006 M02/M03 A3020 RMK AO2 SNB38 CIG 003V008 P0000 I1001 T10171028


Station Type Date Time Source
KAOH Decoded METAR 2023/01/30 11:39 UTC NOAA

LIMA ALLEN COUNTY AIRPORT, OH, United States (KAOH) 40-42N 84-01W 296M
Jan 30, 2023 - 06:39 AM EST / 2023.01.30 1139 UTC
Wind: from the NNW (340 degrees) at 9 MPH (8 KT):0
Visibility: 2 1/2 mile(s):0
Sky conditions: overcast
Weather: light snow; mist
Precipitation last hour: A trace
Temperature: 28.9 F (-1.7 C)
Windchill: 21 F (-6 C):1
Dew Point: 27.0 F (-2.8 C)
Relative Humidity: 92%
Pressure (altimeter): 30.2 in. Hg (1022 hPa)
ob: KAOH 301139Z AUTO 34008KT 2 1/2SM -SN BR OVC006 M02/M03 A3020 RMK AO2 SNB38 CIG 003V008 P0000 I1001 T10171028
cycle: 11

Station Type Date Time Source
KAOH TAF UTC NOAA

Error!

Example: see airport list